sensor_id;sensor_type;location;lat;lon;timestamp;P1;durP1;ratioP1;P2;durP2;ratioP2
23498;SDS011;11926;48.120;11.562;2022-08-21T00:00:15;8.77;;;1.95;;
23498;SDS011;11926;48.120;11.562;2022-08-21T00:03:08;2.60;;;1.70;;
23498;SDS011;11926;48.120;11.562;2022-08-21T00:05:56;5.07;;;1.98;;
23498;SDS011;11926;48.120;11.562;2022-08-21T00:08:44;5.80;;;1.95;;
23498;SDS011;11926;48.120;11.562;2022-08-21T00:11:31;3.08;;;1.95;;
23498;SDS011;11926;48.120;11.562;2022-08-21T00:14:20;2.70;;;1.75;;
23498;SDS011;11926;48.120;11.562;2022-08-21T00:17:06;4.85;;;2.10;;
23498;SDS011;11926;48.120;11.562;2022-08-21T00:19:54;4.53;;;2.10;;
23498;SDS011;11926;48.120;11.562;2022-08-21T00:22:41;4.20;;;1.80;;
23498;SDS011;11926;48.120;11.562;2022-08-21T00:25:30;4.65;;;2.17;;
23498;SDS011;11926;48.120;11.562;2022-08-21T00:28:18;5.65;;;2.03;;
23498;SDS011;11926;48.120;11.562;2022-08-21T00:31:05;8.23;;;2.03;;
23498;SDS011;11926;48.120;11.562;2022-08-21T00:33:51;3.95;;;2.00;;
23498;SDS011;11926;48.120;11.562;2022-08-21T00:36:44;6.05;;;1.90;;
23498;SDS011;11926;48.120;11.562;2022-08-21T00:39:31;3.00;;;1.80;;
23498;SDS011;11926;48.120;11.562;2022-08-21T00:42:20;3.13;;;2.00;;
23498;SDS011;11926;48.120;11.562;2022-08-21T00:45:07;4.53;;;1.88;;
23498;SDS011;11926;48.120;11.562;2022-08-21T00:47:56;6.80;;;2.05;;
23498;SDS011;11926;48.120;11.562;2022-08-21T00:50:45;4.53;;;1.88;;
23498;SDS011;11926;48.120;11.562;2022-08-21T00:53:37;3.13;;;1.63;;
23498;SDS011;11926;48.120;11.562;2022-08-21T00:56:32;4.22;;;1.80;;
23498;SDS011;11926;48.120;11.562;2022-08-21T00:59:21;4.00;;;1.95;;
23498;SDS011;11926;48.120;11.562;2022-08-21T01:02:09;3.50;;;1.67;;
23498;SDS011;11926;48.120;11.562;2022-08-21T01:04:56;4.00;;;1.80;;
23498;SDS011;11926;48.120;11.562;2022-08-21T01:07:43;1.90;;;1.50;;
23498;SDS011;11926;48.120;11.562;2022-08-21T01:10:30;4.38;;;1.60;;
23498;SDS011;11926;48.120;11.562;2022-08-21T01:13:18;6.68;;;1.77;;
23498;SDS011;11926;48.120;11.562;2022-08-21T01:16:11;5.75;;;1.60;;
23498;SDS011;11926;48.120;11.562;2022-08-21T01:18:59;3.58;;;1.45;;
23498;SDS011;11926;48.120;11.562;2022-08-21T01:21:49;7.25;;;1.70;;
23498;SDS011;11926;48.120;11.562;2022-08-21T01:24:38;5.65;;;1.70;;
23498;SDS011;11926;48.120;11.562;2022-08-21T01:27:26;5.72;;;1.67;;
23498;SDS011;11926;48.120;11.562;2022-08-21T01:30:14;3.80;;;1.55;;
23498;SDS011;11926;48.120;11.562;2022-08-21T01:33:05;4.10;;;1.77;;
23498;SDS011;11926;48.120;11.562;2022-08-21T01:35:52;1.80;;;1.40;;
23498;SDS011;11926;48.120;11.562;2022-08-21T01:38:41;7.68;;;1.52;;
23498;SDS011;11926;48.120;11.562;2022-08-21T01:41:27;5.30;;;1.83;;
23498;SDS011;11926;48.120;11.562;2022-08-21T01:44:15;7.55;;;1.70;;
23498;SDS011;11926;48.120;11.562;2022-08-21T01:47:05;7.35;;;1.90;;
23498;SDS011;11926;48.120;11.562;2022-08-21T01:49:53;3.38;;;1.80;;
23498;SDS011;11926;48.120;11.562;2022-08-21T01:52:40;3.30;;;1.85;;
23498;SDS011;11926;48.120;11.562;2022-08-21T01:55:28;3.42;;;1.95;;
23498;SDS011;11926;48.120;11.562;2022-08-21T01:58:16;5.97;;;1.88;;
23498;SDS011;11926;48.120;11.562;2022-08-21T02:01:03;8.02;;;1.60;;
23498;SDS011;11926;48.120;11.562;2022-08-21T02:03:50;3.67;;;1.50;;
23498;SDS011;11926;48.120;11.562;2022-08-21T02:06:37;6.82;;;1.83;;
23498;SDS011;11926;48.120;11.562;2022-08-21T02:09:24;5.93;;;1.70;;
23498;SDS011;11926;48.120;11.562;2022-08-21T02:12:13;2.30;;;1.60;;
23498;SDS011;11926;48.120;11.562;2022-08-21T02:15:00;2.15;;;1.50;;
23498;SDS011;11926;48.120;11.562;2022-08-21T02:17:49;3.80;;;1.60;;
23498;SDS011;11926;48.120;11.562;2022-08-21T02:20:38;2.15;;;1.63;;
23498;SDS011;11926;48.120;11.562;2022-08-21T02:23:27;2.78;;;1.65;;
23498;SDS011;11926;48.120;11.562;2022-08-21T02:26:15;2.58;;;1.63;;
23498;SDS011;11926;48.120;11.562;2022-08-21T02:29:03;3.33;;;1.77;;
23498;SDS011;11926;48.120;11.562;2022-08-21T02:31:51;3.30;;;1.80;;
23498;SDS011;11926;48.120;11.562;2022-08-21T02:34:38;3.40;;;1.85;;
23498;SDS011;11926;48.120;11.562;2022-08-21T02:37:25;2.38;;;1.70;;
23498;SDS011;11926;48.120;11.562;2022-08-21T02:40:12;3.50;;;2.10;;
23498;SDS011;11926;48.120;11.562;2022-08-21T02:43:01;4.68;;;1.55;;
23498;SDS011;11926;48.120;11.562;2022-08-21T02:45:52;5.63;;;2.00;;
23498;SDS011;11926;48.120;11.562;2022-08-21T02:48:40;4.75;;;1.88;;
23498;SDS011;11926;48.120;11.562;2022-08-21T02:51:28;2.47;;;1.63;;
23498;SDS011;11926;48.120;11.562;2022-08-21T02:54:16;13.73;;;2.08;;
23498;SDS011;11926;48.120;11.562;2022-08-21T02:57:03;3.92;;;2.10;;
23498;SDS011;11926;48.120;11.562;2022-08-21T02:59:50;3.22;;;1.80;;
23498;SDS011;11926;48.120;11.562;2022-08-21T03:02:38;4.13;;;2.00;;
23498;SDS011;11926;48.120;11.562;2022-08-21T03:05:26;4.10;;;2.15;;
23498;SDS011;11926;48.120;11.562;2022-08-21T03:08:16;4.03;;;2.05;;
23498;SDS011;11926;48.120;11.562;2022-08-21T03:11:07;3.53;;;2.15;;
23498;SDS011;11926;48.120;11.562;2022-08-21T03:13:54;2.78;;;1.98;;
23498;SDS011;11926;48.120;11.562;2022-08-21T03:16:42;4.20;;;1.75;;
23498;SDS011;11926;48.120;11.562;2022-08-21T03:19:30;7.60;;;2.03;;
23498;SDS011;11926;48.120;11.562;2022-08-21T03:22:17;4.35;;;2.00;;
23498;SDS011;11926;48.120;11.562;2022-08-21T03:25:04;5.72;;;2.22;;
23498;SDS011;11926;48.120;11.562;2022-08-21T03:27:56;4.75;;;1.92;;
23498;SDS011;11926;48.120;11.562;2022-08-21T03:30:44;4.85;;;2.17;;
23498;SDS011;11926;48.120;11.562;2022-08-21T03:33:33;3.45;;;1.88;;
23498;SDS011;11926;48.120;11.562;2022-08-21T03:36:21;6.85;;;2.15;;
23498;SDS011;11926;48.120;11.562;2022-08-21T03:39:08;2.72;;;1.90;;
23498;SDS011;11926;48.120;11.562;2022-08-21T03:41:55;4.95;;;2.10;;
23498;SDS011;11926;48.120;11.562;2022-08-21T03:44:43;3.55;;;2.03;;
23498;SDS011;11926;48.120;11.562;2022-08-21T03:47:30;5.80;;;1.92;;
23498;SDS011;11926;48.120;11.562;2022-08-21T03:50:17;3.30;;;2.10;;
23498;SDS011;11926;48.120;11.562;2022-08-21T03:53:06;3.65;;;2.30;;
23498;SDS011;11926;48.120;11.562;2022-08-21T03:56:02;3.45;;;2.05;;
23498;SDS011;11926;48.120;11.562;2022-08-21T03:58:49;4.03;;;2.15;;
23498;SDS011;11926;48.120;11.562;2022-08-21T04:01:36;5.45;;;2.22;;
23498;SDS011;11926;48.120;11.562;2022-08-21T04:04:24;6.53;;;2.00;;
23498;SDS011;11926;48.120;11.562;2022-08-21T04:07:12;5.80;;;1.92;;
23498;SDS011;11926;48.120;11.562;2022-08-21T04:10:01;4.30;;;2.45;;
23498;SDS011;11926;48.120;11.562;2022-08-21T04:12:49;3.38;;;2.30;;
23498;SDS011;11926;48.120;11.562;2022-08-21T04:15:36;6.15;;;2.55;;
23498;SDS011;11926;48.120;11.562;2022-08-21T04:18:23;8.77;;;2.67;;
23498;SDS011;11926;48.120;11.562;2022-08-21T04:21:10;4.75;;;2.10;;
23498;SDS011;11926;48.120;11.562;2022-08-21T04:23:59;5.93;;;2.10;;
23498;SDS011;11926;48.120;11.562;2022-08-21T04:26:47;4.15;;;2.50;;
23498;SDS011;11926;48.120;11.562;2022-08-21T04:29:35;10.88;;;2.13;;
23498;SDS011;11926;48.120;11.562;2022-08-21T04:32:24;12.55;;;3.17;;
23498;SDS011;11926;48.120;11.562;2022-08-21T04:35:12;3.63;;;2.30;;
23498;SDS011;11926;48.120;11.562;2022-08-21T04:38:02;4.18;;;2.25;;
23498;SDS011;11926;48.120;11.562;2022-08-21T04:40:49;3.50;;;2.30;;
23498;SDS011;11926;48.120;11.562;2022-08-21T04:43:38;2.97;;;2.15;;
23498;SDS011;11926;48.120;11.562;2022-08-21T04:46:26;5.22;;;2.65;;
23498;SDS011;11926;48.120;11.562;2022-08-21T04:49:13;5.85;;;2.40;;
23498;SDS011;11926;48.120;11.562;2022-08-21T04:52:00;5.43;;;2.42;;
23498;SDS011;11926;48.120;11.562;2022-08-21T04:54:48;4.53;;;2.15;;
23498;SDS011;11926;48.120;11.562;2022-08-21T04:57:39;10.80;;;2.42;;
23498;SDS011;11926;48.120;11.562;2022-08-21T05:00:34;4.13;;;3.30;;
23498;SDS011;11926;48.120;11.562;2022-08-21T05:03:23;3.97;;;2.33;;
23498;SDS011;11926;48.120;11.562;2022-08-21T05:06:11;8.02;;;2.92;;
23498;SDS011;11926;48.120;11.562;2022-08-21T05:09:00;3.88;;;2.60;;
23498;SDS011;11926;48.120;11.562;2022-08-21T05:11:47;4.88;;;3.17;;
23498;SDS011;11926;48.120;11.562;2022-08-21T05:14:36;3.58;;;2.60;;
23498;SDS011;11926;48.120;11.562;2022-08-21T05:17:24;5.70;;;2.83;;
23498;SDS011;11926;48.120;11.562;2022-08-21T05:20:12;8.07;;;2.83;;
23498;SDS011;11926;48.120;11.562;2022-08-21T05:23:00;5.57;;;2.50;;
23498;SDS011;11926;48.120;11.562;2022-08-21T05:25:54;4.28;;;2.55;;
23498;SDS011;11926;48.120;11.562;2022-08-21T05:28:41;4.40;;;2.70;;
23498;SDS011;11926;48.120;11.562;2022-08-21T05:31:31;4.88;;;3.15;;
23498;SDS011;11926;48.120;11.562;2022-08-21T05:34:20;5.28;;;2.60;;
23498;SDS011;11926;48.120;11.562;2022-08-21T05:37:10;5.20;;;2.70;;
23498;SDS011;11926;48.120;11.562;2022-08-21T05:39:58;7.22;;;3.10;;
23498;SDS011;11926;48.120;11.562;2022-08-21T05:43:05;8.00;;;3.42;;
23498;SDS011;11926;48.120;11.562;2022-08-21T05:45:52;5.18;;;2.88;;
23498;SDS011;11926;48.120;11.562;2022-08-21T05:48:39;6.70;;;3.22;;
23498;SDS011;11926;48.120;11.562;2022-08-21T05:51:27;7.15;;;3.53;;
23498;SDS011;11926;48.120;11.562;2022-08-21T05:54:15;3.22;;;2.50;;
23498;SDS011;11926;48.120;11.562;2022-08-21T05:57:01;6.80;;;3.22;;
23498;SDS011;11926;48.120;11.562;2022-08-21T05:59:48;4.80;;;2.40;;
23498;SDS011;11926;48.120;11.562;2022-08-21T06:02:36;8.02;;;3.30;;
23498;SDS011;11926;48.120;11.562;2022-08-21T06:05:23;3.78;;;2.45;;
23498;SDS011;11926;48.120;11.562;2022-08-21T06:08:23;4.47;;;3.08;;
23498;SDS011;11926;48.120;11.562;2022-08-21T06:11:11;3.45;;;2.30;;
23498;SDS011;11926;48.120;11.562;2022-08-21T06:13:58;4.47;;;2.50;;
23498;SDS011;11926;48.120;11.562;2022-08-21T06:16:45;6.68;;;3.55;;
23498;SDS011;11926;48.120;11.562;2022-08-21T06:19:33;4.63;;;2.67;;
23498;SDS011;11926;48.120;11.562;2022-08-21T06:22:20;5.03;;;2.63;;
23498;SDS011;11926;48.120;11.562;2022-08-21T06:25:09;4.75;;;2.72;;
23498;SDS011;11926;48.120;11.562;2022-08-21T06:28:00;4.47;;;2.58;;
23498;SDS011;11926;48.120;11.562;2022-08-21T06:30:49;4.47;;;2.67;;
23498;SDS011;11926;48.120;11.562;2022-08-21T06:33:36;3.88;;;2.22;;
23498;SDS011;11926;48.120;11.562;2022-08-21T06:36:23;4.55;;;2.60;;
23498;SDS011;11926;48.120;11.562;2022-08-21T06:39:09;6.95;;;2.42;;
23498;SDS011;11926;48.120;11.562;2022-08-21T06:42:16;4.68;;;2.25;;
23498;SDS011;11926;48.120;11.562;2022-08-21T06:45:04;3.30;;;2.10;;
23498;SDS011;11926;48.120;11.562;2022-08-21T06:47:52;5.53;;;2.15;;
23498;SDS011;11926;48.120;11.562;2022-08-21T06:50:39;6.28;;;2.20;;
23498;SDS011;11926;48.120;11.562;2022-08-21T06:53:43;7.45;;;2.35;;
23498;SDS011;11926;48.120;11.562;2022-08-21T06:56:31;6.03;;;2.58;;
23498;SDS011;11926;48.120;11.562;2022-08-21T06:59:25;3.85;;;2.10;;
23498;SDS011;11926;48.120;11.562;2022-08-21T07:02:12;2.90;;;2.15;;
23498;SDS011;11926;48.120;11.562;2022-08-21T07:04:59;6.10;;;2.20;;
23498;SDS011;11926;48.120;11.562;2022-08-21T07:10:49;3.88;;;2.15;;
23498;SDS011;11926;48.120;11.562;2022-08-21T07:13:37;5.18;;;2.35;;
23498;SDS011;11926;48.120;11.562;2022-08-21T07:16:26;3.65;;;2.20;;
23498;SDS011;11926;48.120;11.562;2022-08-21T07:19:13;8.05;;;2.55;;
23498;SDS011;11926;48.120;11.562;2022-08-21T07:22:03;6.82;;;2.47;;
23498;SDS011;11926;48.120;11.562;2022-08-21T07:24:50;5.32;;;2.65;;
23498;SDS011;11926;48.120;11.562;2022-08-21T07:27:37;4.18;;;2.95;;
23498;SDS011;11926;48.120;11.562;2022-08-21T07:30:24;3.60;;;2.47;;
23498;SDS011;11926;48.120;11.562;2022-08-21T07:33:14;7.63;;;2.72;;
23498;SDS011;11926;48.120;11.562;2022-08-21T07:36:04;6.20;;;2.97;;
23498;SDS011;11926;48.120;11.562;2022-08-21T07:38:51;6.88;;;3.33;;
23498;SDS011;11926;48.120;11.562;2022-08-21T07:41:38;5.45;;;2.50;;
23498;SDS011;11926;48.120;11.562;2022-08-21T07:44:26;6.57;;;3.10;;
23498;SDS011;11926;48.120;11.562;2022-08-21T07:47:13;4.10;;;2.45;;
23498;SDS011;11926;48.120;11.562;2022-08-21T07:50:21;4.25;;;2.90;;
23498;SDS011;11926;48.120;11.562;2022-08-21T07:53:09;6.03;;;3.10;;
23498;SDS011;11926;48.120;11.562;2022-08-21T07:55:57;5.80;;;3.33;;
23498;SDS011;11926;48.120;11.562;2022-08-21T07:58:44;5.88;;;2.72;;
23498;SDS011;11926;48.120;11.562;2022-08-21T08:01:31;4.35;;;2.72;;
23498;SDS011;11926;48.120;11.562;2022-08-21T08:04:18;7.22;;;3.10;;
23498;SDS011;11926;48.120;11.562;2022-08-21T08:07:12;5.40;;;2.80;;
23498;SDS011;11926;48.120;11.562;2022-08-21T08:09:59;4.30;;;2.63;;
23498;SDS011;11926;48.120;11.562;2022-08-21T08:12:46;5.25;;;2.85;;
23498;SDS011;11926;48.120;11.562;2022-08-21T08:15:33;6.97;;;2.78;;
23498;SDS011;11926;48.120;11.562;2022-08-21T08:18:21;11.00;;;3.47;;
23498;SDS011;11926;48.120;11.562;2022-08-21T08:21:09;7.22;;;3.80;;
23498;SDS011;11926;48.120;11.562;2022-08-21T08:23:58;3.85;;;2.50;;
23498;SDS011;11926;48.120;11.562;2022-08-21T08:27:03;3.95;;;3.10;;
23498;SDS011;11926;48.120;11.562;2022-08-21T08:29:50;5.97;;;3.47;;
23498;SDS011;11926;48.120;11.562;2022-08-21T08:32:38;4.25;;;2.85;;
23498;SDS011;11926;48.120;11.562;2022-08-21T08:35:26;10.68;;;3.15;;
23498;SDS011;11926;48.120;11.562;2022-08-21T08:38:15;9.40;;;3.55;;
23498;SDS011;11926;48.120;11.562;2022-08-21T08:41:08;4.28;;;3.15;;
23498;SDS011;11926;48.120;11.562;2022-08-21T08:43:59;4.53;;;3.20;;
23498;SDS011;11926;48.120;11.562;2022-08-21T08:46:50;7.22;;;2.97;;
23498;SDS011;11926;48.120;11.562;2022-08-21T08:49:42;5.72;;;3.20;;
23498;SDS011;11926;48.120;11.562;2022-08-21T08:52:37;4.45;;;3.22;;
23498;SDS011;11926;48.120;11.562;2022-08-21T08:55:32;5.70;;;3.15;;
23498;SDS011;11926;48.120;11.562;2022-08-21T08:58:25;8.07;;;3.17;;
23498;SDS011;11926;48.120;11.562;2022-08-21T09:01:15;4.45;;;3.03;;
23498;SDS011;11926;48.120;11.562;2022-08-21T09:04:05;5.95;;;3.20;;
23498;SDS011;11926;48.120;11.562;2022-08-21T09:06:55;4.47;;;3.20;;
23498;SDS011;11926;48.120;11.562;2022-08-21T09:10:05;5.10;;;2.95;;
23498;SDS011;11926;48.120;11.562;2022-08-21T09:12:59;4.75;;;3.28;;
23498;SDS011;11926;48.120;11.562;2022-08-21T09:15:58;5.90;;;3.22;;
23498;SDS011;11926;48.120;11.562;2022-08-21T09:18:54;4.15;;;3.10;;
23498;SDS011;11926;48.120;11.562;2022-08-21T09:21:51;6.00;;;3.35;;
23498;SDS011;11926;48.120;11.562;2022-08-21T09:24:47;3.95;;;2.97;;
23498;SDS011;11926;48.120;11.562;2022-08-21T09:27:42;6.45;;;3.60;;
23498;SDS011;11926;48.120;11.562;2022-08-21T09:30:30;3.88;;;3.00;;
23498;SDS011;11926;48.120;11.562;2022-08-21T09:33:20;5.22;;;2.72;;
23498;SDS011;11926;48.120;11.562;2022-08-21T09:36:07;4.07;;;2.92;;
23498;SDS011;11926;48.120;11.562;2022-08-21T09:38:54;5.97;;;2.80;;
23498;SDS011;11926;48.120;11.562;2022-08-21T09:41:41;7.53;;;2.88;;
23498;SDS011;11926;48.120;11.562;2022-08-21T09:44:29;5.93;;;2.70;;
23498;SDS011;11926;48.120;11.562;2022-08-21T09:47:20;4.28;;;2.60;;
23498;SDS011;11926;48.120;11.562;2022-08-21T09:50:15;3.63;;;2.75;;
23498;SDS011;11926;48.120;11.562;2022-08-21T09:53:05;4.13;;;2.40;;
23498;SDS011;11926;48.120;11.562;2022-08-21T09:56:02;4.35;;;2.38;;
23498;SDS011;11926;48.120;11.562;2022-08-21T09:59:17;4.70;;;2.53;;
23498;SDS011;11926;48.120;11.562;2022-08-21T10:02:19;5.32;;;2.28;;
23498;SDS011;11926;48.120;11.562;2022-08-21T10:05:18;4.63;;;2.30;;
23498;SDS011;11926;48.120;11.562;2022-08-21T10:08:16;5.00;;;3.13;;
23498;SDS011;11926;48.120;11.562;2022-08-21T10:11:05;3.88;;;2.25;;
23498;SDS011;11926;48.120;11.562;2022-08-21T10:13:56;3.45;;;2.17;;
23498;SDS011;11926;48.120;11.562;2022-08-21T10:16:52;3.55;;;2.40;;
23498;SDS011;11926;48.120;11.562;2022-08-21T10:19:51;6.53;;;2.63;;
23498;SDS011;11926;48.120;11.562;2022-08-21T10:22:50;4.10;;;2.10;;
23498;SDS011;11926;48.120;11.562;2022-08-21T10:25:48;3.03;;;2.22;;
23498;SDS011;11926;48.120;11.562;2022-08-21T10:29:01;4.03;;;1.98;;
23498;SDS011;11926;48.120;11.562;2022-08-21T10:31:54;4.97;;;2.35;;
23498;SDS011;11926;48.120;11.562;2022-08-21T10:34:48;5.18;;;2.15;;
23498;SDS011;11926;48.120;11.562;2022-08-21T10:37:51;3.75;;;2.22;;
23498;SDS011;11926;48.120;11.562;2022-08-21T10:40:48;6.07;;;2.72;;
23498;SDS011;11926;48.120;11.562;2022-08-21T10:43:43;4.18;;;2.65;;
23498;SDS011;11926;48.120;11.562;2022-08-21T10:46:39;3.83;;;2.67;;
23498;SDS011;11926;48.120;11.562;2022-08-21T10:49:37;5.32;;;2.47;;
23498;SDS011;11926;48.120;11.562;2022-08-21T10:52:32;3.63;;;2.55;;
23498;SDS011;11926;48.120;11.562;2022-08-21T10:55:33;3.78;;;2.60;;
23498;SDS011;11926;48.120;11.562;2022-08-21T10:58:26;4.38;;;2.38;;
23498;SDS011;11926;48.120;11.562;2022-08-21T11:01:18;3.75;;;2.30;;
23498;SDS011;11926;48.120;11.562;2022-08-21T11:04:16;3.78;;;1.55;;
23498;SDS011;11926;48.120;11.562;2022-08-21T11:07:09;3.08;;;1.90;;
23498;SDS011;11926;48.120;11.562;2022-08-21T11:10:04;5.03;;;2.42;;
23498;SDS011;11926;48.120;11.562;2022-08-21T11:12:58;3.15;;;2.20;;
23498;SDS011;11926;48.120;11.562;2022-08-21T11:15:50;2.90;;;2.25;;
23498;SDS011;11926;48.120;11.562;2022-08-21T11:18:43;4.15;;;2.15;;
23498;SDS011;11926;48.120;11.562;2022-08-21T11:21:36;3.38;;;2.65;;
23498;SDS011;11926;48.120;11.562;2022-08-21T11:24:30;5.80;;;2.63;;
23498;SDS011;11926;48.120;11.562;2022-08-21T11:27:23;3.28;;;2.10;;
23498;SDS011;11926;48.120;11.562;2022-08-21T11:30:17;3.75;;;1.80;;
23498;SDS011;11926;48.120;11.562;2022-08-21T11:33:07;2.95;;;2.13;;
23498;SDS011;11926;48.120;11.562;2022-08-21T11:36:09;3.67;;;2.00;;
23498;SDS011;11926;48.120;11.562;2022-08-21T11:39:02;2.65;;;2.03;;
23498;SDS011;11926;48.120;11.562;2022-08-21T11:42:00;4.20;;;2.30;;
23498;SDS011;11926;48.120;11.562;2022-08-21T11:44:55;3.85;;;2.10;;
23498;SDS011;11926;48.120;11.562;2022-08-21T11:47:58;9.07;;;2.15;;
23498;SDS011;11926;48.120;11.562;2022-08-21T11:50:53;8.95;;;4.45;;
23498;SDS011;11926;48.120;11.562;2022-08-21T11:53:44;3.80;;;2.33;;
23498;SDS011;11926;48.120;11.562;2022-08-21T11:56:38;3.35;;;1.98;;
23498;SDS011;11926;48.120;11.562;2022-08-21T11:59:32;4.57;;;2.22;;
23498;SDS011;11926;48.120;11.562;2022-08-21T12:02:28;3.33;;;2.00;;
23498;SDS011;11926;48.120;11.562;2022-08-21T12:05:25;5.95;;;2.58;;
23498;SDS011;11926;48.120;11.562;2022-08-21T12:08:26;5.57;;;2.10;;
23498;SDS011;11926;48.120;11.562;2022-08-21T12:11:22;2.53;;;1.65;;
23498;SDS011;11926;48.120;11.562;2022-08-21T12:14:16;3.53;;;2.00;;
23498;SDS011;11926;48.120;11.562;2022-08-21T12:17:08;2.55;;;2.00;;
23498;SDS011;11926;48.120;11.562;2022-08-21T12:20:15;3.90;;;2.10;;
23498;SDS011;11926;48.120;11.562;2022-08-21T12:23:15;3.30;;;1.77;;
23498;SDS011;11926;48.120;11.562;2022-08-21T12:32:00;3.17;;;1.67;;
23498;SDS011;11926;48.120;11.562;2022-08-21T12:34:51;5.43;;;2.65;;
23498;SDS011;11926;48.120;11.562;2022-08-21T12:37:42;4.28;;;2.60;;
23498;SDS011;11926;48.120;11.562;2022-08-21T12:40:37;6.38;;;2.10;;
23498;SDS011;11926;48.120;11.562;2022-08-21T12:43:28;3.80;;;2.00;;
23498;SDS011;11926;48.120;11.562;2022-08-21T12:46:26;3.05;;;1.85;;
23498;SDS011;11926;48.120;11.562;2022-08-21T12:49:21;2.83;;;1.95;;
23498;SDS011;11926;48.120;11.562;2022-08-21T12:52:20;3.78;;;2.13;;
23498;SDS011;11926;48.120;11.562;2022-08-21T12:55:11;3.75;;;2.20;;
23498;SDS011;11926;48.120;11.562;2022-08-21T12:58:00;4.82;;;1.90;;
23498;SDS011;11926;48.120;11.562;2022-08-21T13:00:49;4.82;;;3.05;;
23498;SDS011;11926;48.120;11.562;2022-08-21T13:03:38;5.57;;;2.90;;
23498;SDS011;11926;48.120;11.562;2022-08-21T13:06:27;3.30;;;1.85;;
23498;SDS011;11926;48.120;11.562;2022-08-21T13:09:19;5.00;;;2.03;;
23498;SDS011;11926;48.120;11.562;2022-08-21T13:15:01;2.70;;;1.90;;
23498;SDS011;11926;48.120;11.562;2022-08-21T13:17:53;4.75;;;2.08;;
23498;SDS011;11926;48.120;11.562;2022-08-21T13:20:46;5.07;;;3.50;;
23498;SDS011;11926;48.120;11.562;2022-08-21T13:23:33;5.72;;;2.22;;
23498;SDS011;11926;48.120;11.562;2022-08-21T13:26:21;4.05;;;1.92;;
23498;SDS011;11926;48.120;11.562;2022-08-21T13:29:08;3.25;;;1.95;;
23498;SDS011;11926;48.120;11.562;2022-08-21T13:31:59;2.67;;;1.48;;
23498;SDS011;11926;48.120;11.562;2022-08-21T13:34:49;4.05;;;2.17;;
23498;SDS011;11926;48.120;11.562;2022-08-21T13:37:39;3.85;;;2.28;;
23498;SDS011;11926;48.120;11.562;2022-08-21T13:40:28;3.72;;;2.00;;
23498;SDS011;11926;48.120;11.562;2022-08-21T13:43:18;3.38;;;1.92;;
23498;SDS011;11926;48.120;11.562;2022-08-21T13:46:09;5.60;;;2.28;;
23498;SDS011;11926;48.120;11.562;2022-08-21T13:49:02;6.18;;;2.10;;
23498;SDS011;11926;48.120;11.562;2022-08-21T13:51:51;4.13;;;2.45;;
23498;SDS011;11926;48.120;11.562;2022-08-21T13:54:39;3.05;;;1.95;;
23498;SDS011;11926;48.120;11.562;2022-08-21T13:57:30;4.40;;;2.25;;
23498;SDS011;11926;48.120;11.562;2022-08-21T14:00:20;6.28;;;2.08;;
23498;SDS011;11926;48.120;11.562;2022-08-21T14:03:14;4.55;;;2.40;;
23498;SDS011;11926;48.120;11.562;2022-08-21T14:06:16;3.83;;;2.13;;
23498;SDS011;11926;48.120;11.562;2022-08-21T14:09:08;3.40;;;2.05;;
23498;SDS011;11926;48.120;11.562;2022-08-21T14:11:58;3.83;;;2.15;;
23498;SDS011;11926;48.120;11.562;2022-08-21T14:14:53;3.97;;;2.15;;
23498;SDS011;11926;48.120;11.562;2022-08-21T14:17:42;4.13;;;2.10;;
23498;SDS011;11926;48.120;11.562;2022-08-21T14:20:31;4.65;;;2.53;;
23498;SDS011;11926;48.120;11.562;2022-08-21T14:23:25;3.88;;;2.35;;
23498;SDS011;11926;48.120;11.562;2022-08-21T14:26:13;7.15;;;2.38;;
23498;SDS011;11926;48.120;11.562;2022-08-21T14:29:06;5.55;;;2.35;;
23498;SDS011;11926;48.120;11.562;2022-08-21T14:31:56;3.30;;;2.30;;
23498;SDS011;11926;48.120;11.562;2022-08-21T14:34:44;3.30;;;2.08;;
23498;SDS011;11926;48.120;11.562;2022-08-21T14:37:31;5.07;;;2.50;;
23498;SDS011;11926;48.120;11.562;2022-08-21T14:40:20;4.70;;;2.10;;
23498;SDS011;11926;48.120;11.562;2022-08-21T14:43:09;3.47;;;1.92;;
23498;SDS011;11926;48.120;11.562;2022-08-21T14:45:56;4.82;;;2.33;;
23498;SDS011;11926;48.120;11.562;2022-08-21T14:48:43;3.20;;;1.80;;
23498;SDS011;11926;48.120;11.562;2022-08-21T14:51:31;4.97;;;2.10;;
23498;SDS011;11926;48.120;11.562;2022-08-21T14:54:18;4.90;;;2.08;;
23498;SDS011;11926;48.120;11.562;2022-08-21T14:57:16;4.47;;;2.20;;
23498;SDS011;11926;48.120;11.562;2022-08-21T15:00:04;3.78;;;2.17;;
23498;SDS011;11926;48.120;11.562;2022-08-21T15:02:55;3.08;;;2.13;;
23498;SDS011;11926;48.120;11.562;2022-08-21T15:05:42;5.68;;;1.88;;
23498;SDS011;11926;48.120;11.562;2022-08-21T15:08:29;3.85;;;2.40;;
23498;SDS011;11926;48.120;11.562;2022-08-21T15:11:18;6.22;;;2.30;;
23498;SDS011;11926;48.120;11.562;2022-08-21T15:14:31;3.38;;;2.20;;
23498;SDS011;11926;48.120;11.562;2022-08-21T15:20:09;4.07;;;2.53;;
23498;SDS011;11926;48.120;11.562;2022-08-21T15:22:56;5.60;;;2.50;;
23498;SDS011;11926;48.120;11.562;2022-08-21T15:25:44;5.43;;;2.22;;
23498;SDS011;11926;48.120;11.562;2022-08-21T15:28:33;4.30;;;2.25;;
23498;SDS011;11926;48.120;11.562;2022-08-21T15:31:24;5.38;;;2.30;;
23498;SDS011;11926;48.120;11.562;2022-08-21T15:34:11;4.53;;;2.60;;
23498;SDS011;11926;48.120;11.562;2022-08-21T15:36:59;3.33;;;2.13;;
23498;SDS011;11926;48.120;11.562;2022-08-21T15:39:45;4.00;;;2.47;;
23498;SDS011;11926;48.120;11.562;2022-08-21T15:42:38;4.63;;;2.30;;
23498;SDS011;11926;48.120;11.562;2022-08-21T15:45:27;4.70;;;2.30;;
23498;SDS011;11926;48.120;11.562;2022-08-21T15:48:16;5.40;;;2.58;;
23498;SDS011;11926;48.120;11.562;2022-08-21T15:51:03;6.20;;;2.30;;
23498;SDS011;11926;48.120;11.562;2022-08-21T15:53:50;3.42;;;2.35;;
23498;SDS011;11926;48.120;11.562;2022-08-21T15:56:37;5.25;;;2.67;;
23498;SDS011;11926;48.120;11.562;2022-08-21T15:59:27;6.18;;;2.40;;
23498;SDS011;11926;48.120;11.562;2022-08-21T16:02:19;4.65;;;2.40;;
23498;SDS011;11926;48.120;11.562;2022-08-21T16:05:11;3.37;;;1.90;;
23498;SDS011;11926;48.120;11.562;2022-08-21T16:08:01;5.72;;;2.25;;
23498;SDS011;11926;48.120;11.562;2022-08-21T16:10:48;3.78;;;2.10;;
23498;SDS011;11926;48.120;11.562;2022-08-21T16:13:38;5.95;;;2.20;;
23498;SDS011;11926;48.120;11.562;2022-08-21T16:16:28;5.38;;;2.35;;
23498;SDS011;11926;48.120;11.562;2022-08-21T16:19:17;3.80;;;2.25;;
23498;SDS011;11926;48.120;11.562;2022-08-21T16:22:07;3.83;;;2.15;;
23498;SDS011;11926;48.120;11.562;2022-08-21T16:24:54;3.20;;;2.28;;
23498;SDS011;11926;48.120;11.562;2022-08-21T16:27:43;4.75;;;2.38;;
23498;SDS011;11926;48.120;11.562;2022-08-21T16:30:34;5.78;;;2.38;;
23498;SDS011;11926;48.120;11.562;2022-08-21T16:33:22;6.57;;;2.13;;
23498;SDS011;11926;48.120;11.562;2022-08-21T16:36:15;6.50;;;2.42;;
23498;SDS011;11926;48.120;11.562;2022-08-21T16:39:04;3.85;;;2.10;;
23498;SDS011;11926;48.120;11.562;2022-08-21T16:41:51;5.10;;;2.88;;
23498;SDS011;11926;48.120;11.562;2022-08-21T16:44:39;3.08;;;2.08;;
23498;SDS011;11926;48.120;11.562;2022-08-21T16:47:32;4.35;;;2.72;;
23498;SDS011;11926;48.120;11.562;2022-08-21T16:50:21;5.32;;;2.20;;
23498;SDS011;11926;48.120;11.562;2022-08-21T16:53:10;5.55;;;2.30;;
23498;SDS011;11926;48.120;11.562;2022-08-21T16:55:58;4.78;;;2.53;;
23498;SDS011;11926;48.120;11.562;2022-08-21T16:58:47;4.88;;;2.40;;
23498;SDS011;11926;48.120;11.562;2022-08-21T17:01:35;3.95;;;2.45;;
23498;SDS011;11926;48.120;11.562;2022-08-21T17:04:22;4.85;;;2.65;;